Time;durP1;ratioP1;P1;durP2;ratioP2;P2;SDS_P1;SDS_P2;PMS_P1;PMS_P2;Temp;Humidity;BMP_temperature;BMP_pressure;BME280_temperature;BME280_humidity;BME280_pressure;Samples;Min_cycle;Max_cycle;Signal;HPM_P1;HPM_P2
2023/03/28 00:00:57;;;;;;;;;1.75;1.75;;;;;;;;6305084;22;45437;-83
2023/03/28 00:03:22;;;;;;;;;4.50;2.00;;;;;;;;6305027;22;45167;-83
2023/03/28 00:05:48;;;;;;;;;4.00;1.00;;;;;;;;6305085;22;45394;-82
2023/03/28 00:08:14;;;;;;;;;3.50;1.00;;;;;;;;6304897;22;45791;-82
2023/03/28 00:10:40;;;;;;;;;4.75;2.00;;;;;;;;6303380;22;45405;-82
2023/03/28 00:13:05;;;;;;;;;2.75;2.00;;;;;;;;6305777;22;45652;-82
2023/03/28 00:15:30;;;;;;;;;1.00;1.00;;;;;;;;6303542;22;46064;-83
2023/03/28 00:17:58;;;;;;;;;1.00;1.00;;;;;;;;6304286;22;45524;-83
2023/03/28 00:20:23;;;;;;;;;2.00;1.00;;;;;;;;6303485;22;45307;-82
2023/03/28 00:22:48;;;;;;;;;1.33;0.00;;;;;;;;6303403;22;45436;-83
2023/03/28 00:25:13;;;;;;;;;6.00;2.00;;;;;;;;6304577;22;45443;-83
2023/03/28 00:27:39;;;;;;;;;4.00;1.00;;;;;;;;6303266;22;45324;-83
2023/03/28 00:30:05;;;;;;;;;1.75;1.00;;;;;;;;6304817;22;45376;-82
2023/03/28 00:32:30;;;;;;;;;3.00;1.00;;;;;;;;6304251;22;45224;-82
2023/03/28 00:34:55;;;;;;;;;4.00;1.00;;;;;;;;6303047;22;48502;-82
2023/03/28 00:37:21;;;;;;;;;4.00;1.00;;;;;;;;6305049;22;45258;-82
2023/03/28 00:39:50;;;;;;;;;1.00;1.00;;;;;;;;6304962;22;45172;-83
2023/03/28 00:42:16;;;;;;;;;0.00;0.00;;;;;;;;6302993;22;45448;-82
2023/03/28 00:44:46;;;;;;;;;1.00;1.00;;;;;;;;6304241;22;47072;-82
2023/03/28 00:47:11;;;;;;;;;5.50;2.00;;;;;;;;6304882;22;45191;-82
2023/03/28 00:49:36;;;;;;;;;1.33;1.00;;;;;;;;6303239;22;45284;-82
2023/03/28 00:52:03;;;;;;;;;1.00;1.00;;;;;;;;6303296;22;45415;-82
2023/03/28 00:54:31;;;;;;;;;4.00;2.00;;;;;;;;6304544;22;45193;-82
2023/03/28 00:56:59;;;;;;;;;2.00;2.00;;;;;;;;6304529;22;45798;-82
2023/03/28 00:59:27;;;;;;;;;1.25;1.00;;;;;;;;6304301;22;45296;-81
2023/03/28 01:01:54;;;;;;;;;6.25;2.00;;;;;;;;6305160;22;45493;-82
2023/03/28 01:04:21;;;;;;;;;2.00;1.00;;;;;;;;6304443;22;45429;-82
2023/03/28 01:06:48;;;;;;;;;1.00;1.00;;;;;;;;6302905;22;45341;-82
2023/03/28 01:09:15;;;;;;;;;4.75;2.00;;;;;;;;6304663;22;45380;-82
2023/03/28 01:11:42;;;;;;;;;2.00;2.00;;;;;;;;6304902;22;45277;-82
2023/03/28 01:14:08;;;;;;;;;4.50;4.00;;;;;;;;6303539;22;46041;-82
2023/03/28 01:16:40;;;;;;;;;6.00;5.00;;;;;;;;6304751;22;45731;-82
2023/03/28 01:19:07;;;;;;;;;2.50;2.50;;;;;;;;6304776;22;45293;-82
2023/03/28 01:21:52;;;;;;;;;2.50;2.00;;;;;;;;6304804;22;45494;-82
2023/03/28 01:24:38;;;;;;;;;2.00;2.00;;;;;;;;6304367;22;46544;-82
2023/03/28 01:27:03;;;;;;;;;5.25;1.00;;;;;;;;6303098;22;46238;-83
2023/03/28 01:29:34;;;;;;;;;2.67;1.00;;;;;;;;6304654;22;45213;-83
2023/03/28 01:32:02;;;;;;;;;3.00;1.00;;;;;;;;6301179;22;45214;-83
2023/03/28 01:34:46;;;;;;;;;3.00;1.50;;;;;;;;6304238;22;47205;-83
2023/03/28 01:37:22;;;;;;;;;2.50;1.00;;;;;;;;6302864;22;46006;-84
2023/03/28 01:40:06;;;;;;;;;2.00;2.00;;;;;;;;6304965;22;45259;-84
2023/03/28 01:42:58;;;;;;;;;1.25;1.25;;;;;;;;6302854;22;45470;-83
2023/03/28 01:45:32;;;;;;;;;1.00;1.00;;;;;;;;6270372;22;45598;-83
2023/03/28 01:48:03;;;;;;;;;0.00;0.00;;;;;;;;6244400;22;45903;-83
2023/03/28 01:50:40;;;;;;;;;1.75;1.00;;;;;;;;6270339;22;45366;-84
2023/03/28 01:53:05;;;;;;;;;2.00;1.00;;;;;;;;6243832;22;45346;-83
2023/03/28 01:55:30;;;;;;;;;0.00;0.00;;;;;;;;6270049;22;46135;-83
2023/03/28 01:58:05;;;;;;;;;3.33;0.00;;;;;;;;6270023;22;45676;-83
2023/03/28 02:00:33;;;;;;;;;5.50;2.00;;;;;;;;6269724;22;45319;-83
2023/03/28 02:03:03;;;;;;;;;3.00;1.50;;;;;;;;6270588;22;45262;-83
2023/03/28 02:05:30;;;;;;;;;1.75;1.50;;;;;;;;6270081;22;46616;-83
2023/03/28 02:07:57;;;;;;;;;2.00;1.00;;;;;;;;6270105;22;45852;-83
2023/03/28 02:10:24;;;;;;;;;0.25;0.25;;;;;;;;6270473;22;45338;-83
2023/03/28 02:13:01;;;;;;;;;4.00;2.00;;;;;;;;6269960;22;45321;-83
2023/03/28 02:15:28;;;;;;;;;1.00;1.00;;;;;;;;6244155;22;47070;-83
2023/03/28 02:17:56;;;;;;;;;1.00;1.00;;;;;;;;6270150;22;45396;-84
2023/03/28 02:20:24;;;;;;;;;1.75;1.00;;;;;;;;6270343;22;45340;-83
2023/03/28 02:22:52;;;;;;;;;4.00;1.00;;;;;;;;6296233;22;45269;-83
2023/03/28 02:25:18;;;;;;;;;1.25;1.25;;;;;;;;6302243;22;47172;-83
2023/03/28 02:27:44;;;;;;;;;1.00;1.00;;;;;;;;6303876;22;45377;-83
2023/03/28 02:30:10;;;;;;;;;1.00;1.00;;;;;;;;6304689;22;45304;-84
2023/03/28 02:32:36;;;;;;;;;1.25;1.25;;;;;;;;6304185;22;45276;-83
2023/03/28 02:35:03;;;;;;;;;1.00;1.00;;;;;;;;6304153;22;46092;-83
2023/03/28 02:37:47;;;;;;;;;2.00;1.75;;;;;;;;6304294;22;45612;-84
2023/03/28 02:40:31;;;;;;;;;1.50;1.00;;;;;;;;6304397;22;45231;-83
2023/03/28 02:43:02;;;;;;;;;1.00;1.00;;;;;;;;6303563;22;45425;-83
2023/03/28 02:45:42;;;;;;;;;1.25;1.25;;;;;;;;6304177;22;45613;-83
2023/03/28 02:48:25;;;;;;;;;1.00;1.00;;;;;;;;6302303;22;45764;-83
2023/03/28 02:50:56;;;;;;;;;1.25;1.25;;;;;;;;6304686;22;45391;-83
2023/03/28 02:53:31;;;;;;;;;0.00;0.00;;;;;;;;6304002;22;45438;-83
2023/03/28 02:55:59;;;;;;;;;0.75;0.75;;;;;;;;6303327;22;45555;-84
2023/03/28 02:58:33;;;;;;;;;4.00;0.75;;;;;;;;6302335;22;46192;-83
2023/03/28 03:00:58;;;;;;;;;0.00;0.00;;;;;;;;6304045;22;45266;-83
2023/03/28 03:03:24;;;;;;;;;0.50;0.50;;;;;;;;6303619;22;45454;-83
2023/03/28 03:05:49;;;;;;;;;1.00;1.00;;;;;;;;6304985;22;46032;-84
2023/03/28 03:08:15;;;;;;;;;1.00;1.00;;;;;;;;6305124;22;45316;-84
2023/03/28 03:10:41;;;;;;;;;1.00;1.00;;;;;;;;6303322;22;45420;-83
2023/03/28 03:13:06;;;;;;;;;0.33;0.33;;;;;;;;6305777;22;45423;-84
2023/03/28 03:15:34;;;;;;;;;1.00;0.00;;;;;;;;6303028;22;47281;-84
2023/03/28 03:17:59;;;;;;;;;4.00;0.75;;;;;;;;6304815;22;45300;-83
2023/03/28 03:20:25;;;;;;;;;0.00;0.00;;;;;;;;6303787;22;45250;-83
2023/03/28 03:22:50;;;;;;;;;0.75;0.75;;;;;;;;6303405;22;45519;-83
2023/03/28 03:25:16;;;;;;;;;2.00;0.75;;;;;;;;6304888;22;45509;-84
2023/03/28 03:27:41;;;;;;;;;7.00;1.00;;;;;;;;6305674;22;45260;-83
2023/03/28 03:30:07;;;;;;;;;2.00;1.00;;;;;;;;6303532;22;45237;-84
2023/03/28 03:32:32;;;;;;;;;1.25;1.00;;;;;;;;6304923;22;45594;-84
2023/03/28 03:34:57;;;;;;;;;2.00;1.00;;;;;;;;6305532;22;46087;-83
2023/03/28 03:37:22;;;;;;;;;1.33;1.00;;;;;;;;6305442;22;45261;-83
2023/03/28 03:39:48;;;;;;;;;2.00;2.00;;;;;;;;6305212;22;45366;-84
2023/03/28 03:42:13;;;;;;;;;1.00;1.00;;;;;;;;6305322;22;45411;-83
2023/03/28 03:44:38;;;;;;;;;1.00;0.00;;;;;;;;6303044;22;46064;-83
2023/03/28 03:47:04;;;;;;;;;1.00;1.00;;;;;;;;6305341;22;45246;-84
2023/03/28 03:49:29;;;;;;;;;4.25;1.00;;;;;;;;6303462;22;45333;-84
2023/03/28 03:51:54;;;;;;;;;1.00;1.00;;;;;;;;6305116;22;45430;-84
2023/03/28 03:54:19;;;;;;;;;1.67;1.33;;;;;;;;6304857;22;46164;-83
2023/03/28 03:56:45;;;;;;;;;7.33;1.00;;;;;;;;6305399;22;45364;-83
2023/03/28 03:59:10;;;;;;;;;2.50;1.50;;;;;;;;6304776;22;45354;-84
2023/03/28 04:01:38;;;;;;;;;4.67;1.00;;;;;;;;6305231;22;45470;-84
2023/03/28 04:04:03;;;;;;;;;5.00;1.00;;;;;;;;6304596;22;46233;-83
2023/03/28 04:06:28;;;;;;;;;4.00;1.75;;;;;;;;6304734;22;45308;-83
2023/03/28 04:08:53;;;;;;;;;1.00;1.00;;;;;;;;6304565;22;45282;-83
2023/03/28 04:11:19;;;;;;;;;1.00;1.00;;;;;;;;6305428;22;45335;-83
2023/03/28 04:13:44;;;;;;;;;6.25;1.00;;;;;;;;6303459;22;46849;-83
2023/03/28 04:16:10;;;;;;;;;2.00;2.00;;;;;;;;6304684;22;45155;-84
2023/03/28 04:18:36;;;;;;;;;1.75;0.50;;;;;;;;6303190;22;45247;-83
2023/03/28 04:21:01;;;;;;;;;1.75;1.75;;;;;;;;6303541;22;45210;-83
2023/03/28 04:23:26;;;;;;;;;2.00;2.00;;;;;;;;6302398;22;47194;-83
2023/03/28 04:25:56;;;;;;;;;4.50;1.25;;;;;;;;6304741;22;45261;-83
2023/03/28 04:28:24;;;;;;;;;1.25;1.00;;;;;;;;6305246;22;45383;-84
2023/03/28 04:30:58;;;;;;;;;1.75;1.75;;;;;;;;6304807;22;45198;-83
2023/03/28 04:33:24;;;;;;;;;3.50;1.00;;;;;;;;6304965;22;45469;-84
2023/03/28 04:35:58;;;;;;;;;3.50;1.00;;;;;;;;6305252;22;45645;-83
2023/03/28 04:38:27;;;;;;;;;1.00;1.00;;;;;;;;6304493;22;45234;-83
2023/03/28 04:40:56;;;;;;;;;2.00;1.00;;;;;;;;6304921;22;45175;-83
2023/03/28 04:43:21;;;;;;;;;1.00;1.00;;;;;;;;6304251;22;47091;-83
2023/03/28 04:45:46;;;;;;;;;2.00;1.00;;;;;;;;6303151;22;45361;-83
2023/03/28 04:48:12;;;;;;;;;1.00;0.00;;;;;;;;6305467;22;45457;-84
2023/03/28 04:50:37;;;;;;;;;4.00;2.00;;;;;;;;6304803;22;45294;-84
2023/03/28 04:53:02;;;;;;;;;5.00;1.33;;;;;;;;6304717;22;46225;-84
2023/03/28 04:55:28;;;;;;;;;1.00;1.00;;;;;;;;6303096;22;45992;-83
2023/03/28 04:57:53;;;;;;;;;2.00;2.00;;;;;;;;6304704;22;45398;-83
2023/03/28 05:00:19;;;;;;;;;3.00;1.00;;;;;;;;6305053;22;45450;-84
2023/03/28 05:02:44;;;;;;;;;3.33;1.00;;;;;;;;6303091;22;47409;-83
2023/03/28 05:05:09;;;;;;;;;2.00;2.00;;;;;;;;6304382;22;45197;-84
2023/03/28 05:07:35;;;;;;;;;4.00;1.33;;;;;;;;6304389;22;45184;-83
2023/03/28 05:10:03;;;;;;;;;3.00;1.25;;;;;;;;6304788;22;45408;-83
2023/03/28 05:12:28;;;;;;;;;1.00;1.00;;;;;;;;6304707;22;46818;-83
2023/03/28 05:14:54;;;;;;;;;1.00;1.00;;;;;;;;6302999;22;45900;-83
2023/03/28 05:17:19;;;;;;;;;2.00;2.00;;;;;;;;6305015;22;45228;-84
2023/03/28 05:19:44;;;;;;;;;1.00;1.00;;;;;;;;6304914;22;45382;-84
2023/03/28 05:22:09;;;;;;;;;7.00;4.00;;;;;;;;6303918;22;46126;-84
2023/03/28 05:24:35;;;;;;;;;1.00;1.00;;;;;;;;6302735;22;45170;-84
2023/03/28 05:27:00;;;;;;;;;4.00;2.00;;;;;;;;6302999;22;45346;-83
2023/03/28 05:29:25;;;;;;;;;4.67;1.00;;;;;;;;6302644;22;45687;-84
2023/03/28 05:31:50;;;;;;;;;2.00;1.00;;;;;;;;6304651;22;45662;-83
2023/03/28 05:34:16;;;;;;;;;4.33;2.67;;;;;;;;6304396;22;45368;-83
2023/03/28 05:36:41;;;;;;;;;2.00;1.67;;;;;;;;6304249;22;45285;-84
2023/03/28 05:39:07;;;;;;;;;2.00;2.00;;;;;;;;6304436;22;45355;-84
2023/03/28 05:41:32;;;;;;;;;5.75;2.00;;;;;;;;6304210;22;46473;-84
2023/03/28 05:43:57;;;;;;;;;4.33;1.67;;;;;;;;6305259;22;45301;-87
2023/03/28 05:46:22;;;;;;;;;4.00;2.00;;;;;;;;6303718;22;45289;-87
2023/03/28 05:48:47;;;;;;;;;4.00;2.00;;;;;;;;6305674;22;45379;-87
2023/03/28 05:51:13;;;;;;;;;2.67;2.67;;;;;;;;6303423;22;47012;-87
2023/03/28 05:53:38;;;;;;;;;5.00;2.00;;;;;;;;6303250;22;45581;-87
2023/03/28 05:56:03;;;;;;;;;2.00;2.00;;;;;;;;6303488;22;45294;-86
2023/03/28 05:58:28;;;;;;;;;4.50;2.50;;;;;;;;6305692;22;45596;-86
2023/03/28 06:00:55;;;;;;;;;4.33;2.00;;;;;;;;6303307;22;46783;-86
2023/03/28 06:03:21;;;;;;;;;4.00;1.75;;;;;;;;6304948;22;45652;-86
2023/03/28 06:05:46;;;;;;;;;5.75;2.50;;;;;;;;6302971;22;45325;-87
2023/03/28 06:08:11;;;;;;;;;7.00;4.00;;;;;;;;6304934;22;45329;-87
2023/03/28 06:10:37;;;;;;;;;4.00;2.00;;;;;;;;6303138;22;47327;-86
2023/03/28 06:13:02;;;;;;;;;6.67;4.33;;;;;;;;6305521;22;45252;-86
2023/03/28 06:15:27;;;;;;;;;7.67;5.33;;;;;;;;6304799;22;45333;-87
2023/03/28 06:17:52;;;;;;;;;4.75;4.75;;;;;;;;6304263;22;45417;-85
2023/03/28 06:20:17;;;;;;;;;8.00;4.00;;;;;;;;6304512;22;46496;-85
2023/03/28 06:22:43;;;;;;;;;4.00;4.00;;;;;;;;6302597;22;46582;-84
2023/03/28 06:25:08;;;;;;;;;5.33;4.33;;;;;;;;6305427;22;45178;-85
2023/03/28 06:27:34;;;;;;;;;6.00;2.00;;;;;;;;6303114;22;45219;-85
2023/03/28 06:29:59;;;;;;;;;2.50;2.00;;;;;;;;6301281;22;47175;-84
2023/03/28 06:32:25;;;;;;;;;4.00;4.00;;;;;;;;6305271;22;45292;-85
2023/03/28 06:34:50;;;;;;;;;5.00;4.25;;;;;;;;6304246;22;45244;-84
2023/03/28 06:37:15;;;;;;;;;4.00;4.00;;;;;;;;6303173;22;45242;-85
2023/03/28 06:39:40;;;;;;;;;8.00;1.67;;;;;;;;6303875;22;45370;-85
2023/03/28 06:42:06;;;;;;;;;4.00;4.00;;;;;;;;6304701;22;45277;-85
2023/03/28 06:44:31;;;;;;;;;4.67;4.67;;;;;;;;6304833;22;45194;-85
2023/03/28 06:46:56;;;;;;;;;1.00;1.00;;;;;;;;6304442;22;45422;-85
2023/03/28 06:49:22;;;;;;;;;5.67;2.67;;;;;;;;6304187;22;46354;-84
2023/03/28 06:51:47;;;;;;;;;3.00;3.00;;;;;;;;6305642;22;45289;-85
2023/03/28 06:54:12;;;;;;;;;4.00;2.00;;;;;;;;6305044;22;45300;-82
2023/03/28 06:56:37;;;;;;;;;4.00;2.00;;;;;;;;6303405;22;45308;-86
2023/03/28 06:59:03;;;;;;;;;4.00;3.33;;;;;;;;6303621;22;47233;-85
2023/03/28 07:01:28;;;;;;;;;6.00;4.67;;;;;;;;6304299;22;45218;-83
2023/03/28 07:03:53;;;;;;;;;6.00;5.00;;;;;;;;6303423;22;45324;-83
2023/03/28 07:06:18;;;;;;;;;6.50;4.00;;;;;;;;6304548;22;45330;-85
2023/03/28 07:08:44;;;;;;;;;6.33;4.00;;;;;;;;6302527;22;47538;-84
2023/03/28 07:11:09;;;;;;;;;6.00;5.00;;;;;;;;6303869;22;45260;-84
2023/03/28 07:13:34;;;;;;;;;7.00;2.67;;;;;;;;6304025;22;45388;-84
2023/03/28 07:16:03;;;;;;;;;4.25;4.25;;;;;;;;6304799;22;45422;-85
2023/03/28 07:18:29;;;;;;;;;7.75;5.00;;;;;;;;6303428;22;46547;-87
2023/03/28 07:20:54;;;;;;;;;6.00;5.00;;;;;;;;6301987;22;46268;-84
2023/03/28 07:23:20;;;;;;;;;5.33;5.00;;;;;;;;6300306;22;45240;-84
2023/03/28 07:25:45;;;;;;;;;6.00;5.00;;;;;;;;6303062;22;45437;-84
2023/03/28 07:28:10;;;;;;;;;5.67;4.00;;;;;;;;6300393;22;47075;-85
2023/03/28 07:30:35;;;;;;;;;5.67;2.00;;;;;;;;6301801;22;45714;-85
2023/03/28 07:33:00;;;;;;;;;4.33;4.33;;;;;;;;6301500;22;45652;-85
2023/03/28 07:35:26;;;;;;;;;5.33;4.00;;;;;;;;6301893;22;45357;-85
2023/03/28 07:37:51;;;;;;;;;5.00;5.00;;;;;;;;6303216;22;47102;-84
2023/03/28 07:40:16;;;;;;;;;4.67;4.00;;;;;;;;6301499;22;45859;-85
2023/03/28 07:42:41;;;;;;;;;5.50;4.75;;;;;;;;6303183;22;45295;-84
2023/03/28 07:45:07;;;;;;;;;6.67;5.00;;;;;;;;6303115;22;45268;-84
2023/03/28 07:47:32;;;;;;;;;8.00;4.50;;;;;;;;6302921;22;46158;-85
2023/03/28 07:49:57;;;;;;;;;5.67;5.67;;;;;;;;6301895;22;45368;-84
2023/03/28 07:52:22;;;;;;;;;5.00;4.00;;;;;;;;6305281;22;45426;-85
2023/03/28 07:54:48;;;;;;;;;12.33;5.00;;;;;;;;6304898;22;45484;-85
2023/03/28 07:57:13;;;;;;;;;4.33;3.33;;;;;;;;6304884;22;46229;-85
2023/03/28 07:59:38;;;;;;;;;8.67;6.00;;;;;;;;6304601;22;45295;-85
2023/03/28 08:02:03;;;;;;;;;7.00;5.00;;;;;;;;6304419;22;45294;-85
2023/03/28 08:04:28;;;;;;;;;6.00;5.00;;;;;;;;6303497;22;45320;-85
2023/03/28 08:06:54;;;;;;;;;5.50;5.25;;;;;;;;6303991;22;46375;-85
2023/03/28 08:09:20;;;;;;;;;8.67;5.67;;;;;;;;6304513;22;45340;-84
2023/03/28 08:11:45;;;;;;;;;6.00;5.00;;;;;;;;6304649;22;45333;-84
2023/03/28 08:14:12;;;;;;;;;10.50;5.00;;;;;;;;6304557;22;45268;-84
2023/03/28 08:16:38;;;;;;;;;7.25;6.00;;;;;;;;6302282;22;47953;-83
2023/03/28 08:19:03;;;;;;;;;6.00;6.00;;;;;;;;6302777;22;45333;-85
2023/03/28 08:21:31;;;;;;;;;7.50;6.00;;;;;;;;6301627;22;45265;-86
2023/03/28 08:23:57;;;;;;;;;11.00;5.25;;;;;;;;6302734;22;45337;-85
2023/03/28 08:26:22;;;;;;;;;7.00;6.00;;;;;;;;6302508;22;48715;-86
2023/03/28 08:28:48;;;;;;;;;5.00;5.00;;;;;;;;6304781;22;45372;-84
2023/03/28 08:31:14;;;;;;;;;6.75;5.00;;;;;;;;6303784;22;45267;-85
2023/03/28 08:33:40;;;;;;;;;0.00;0.00;;;;;;;;6303281;22;45320;-85
2023/03/28 08:36:06;;;;;;;;;5.75;3.00;;;;;;;;6302738;22;47160;-86
2023/03/28 08:38:31;;;;;;;;;3.50;3.00;;;;;;;;6304711;22;45292;-85
2023/03/28 08:41:15;;;;;;;;;7.00;5.00;;;;;;;;6305405;22;45121;-85
2023/03/28 08:43:59;;;;;;;;;6.00;5.00;;;;;;;;6304633;22;45450;-85
2023/03/28 08:46:26;;;;;;;;;6.50;5.50;;;;;;;;6302865;22;47285;-84
2023/03/28 08:48:53;;;;;;;;;9.25;5.25;;;;;;;;6302689;22;45620;-85
2023/03/28 08:51:36;;;;;;;;;5.25;5.00;;;;;;;;6304783;22;45215;-84
2023/03/28 08:54:02;;;;;;;;;9.50;5.50;;;;;;;;6304575;22;45084;-84
2023/03/28 08:56:27;;;;;;;;;3.67;3.00;;;;;;;;6304415;22;46480;-85
2023/03/28 08:59:06;;;;;;;;;5.00;5.00;;;;;;;;6304317;22;45185;-85
2023/03/28 09:01:31;;;;;;;;;6.25;3.00;;;;;;;;6305162;22;45228;-85
2023/03/28 09:03:57;;;;;;;;;5.00;3.00;;;;;;;;6302645;22;45571;-86
2023/03/28 09:06:37;;;;;;;;;5.50;1.00;;;;;;;;6302739;22;48075;-85
2023/03/28 09:09:03;;;;;;;;;3.50;3.00;;;;;;;;6304354;22;45227;-85
2023/03/28 09:11:53;;;;;;;;;6.00;3.00;;;;;;;;6304401;22;45223;-84
2023/03/28 09:14:43;;;;;;;;;9.00;2.00;;;;;;;;6303956;22;45354;-85
2023/03/28 09:17:15;;;;;;;;;5.00;3.00;;;;;;;;6304134;22;45525;-85
2023/03/28 09:19:57;;;;;;;;;2.50;2.50;;;;;;;;6304725;22;45277;-85
2023/03/28 09:22:31;;;;;;;;;3.00;3.00;;;;;;;;6304670;22;45335;-86
2023/03/28 09:24:56;;;;;;;;;4.25;2.00;;;;;;;;6304931;22;45339;-87
2023/03/28 09:27:24;;;;;;;;;5.33;2.00;;;;;;;;6304857;22;46511;-87
2023/03/28 09:29:50;;;;;;;;;5.50;2.00;;;;;;;;6304825;22;45616;-87
2023/03/28 09:32:16;;;;;;;;;2.75;2.75;;;;;;;;6304114;22;45241;-87
2023/03/28 09:34:46;;;;;;;;;3.00;1.33;;;;;;;;6305800;22;45372;-88
2023/03/28 09:37:17;;;;;;;;;6.25;3.00;;;;;;;;6303757;22;46949;-87
2023/03/28 09:39:53;;;;;;;;;3.00;3.00;;;;;;;;6305100;22;45701;-87
2023/03/28 09:42:51;;;;;;;;;5.25;5.00;;;;;;;;6305500;22;45203;-87
2023/03/28 09:45:24;;;;;;;;;5.25;5.00;;;;;;;;6270860;22;45420;-87
2023/03/28 09:47:49;;;;;;;;;5.50;3.00;;;;;;;;6271969;22;46310;-88
2023/03/28 09:50:15;;;;;;;;;6.00;5.00;;;;;;;;6271610;22;45329;-88
2023/03/28 09:52:41;;;;;;;;;6.50;5.00;;;;;;;;6246207;22;45792;-88
2023/03/28 09:55:17;;;;;;;;;3.00;2.00;;;;;;;;6246461;22;45400;-88
2023/03/28 09:58:01;;;;;;;;;3.00;2.50;;;;;;;;6245095;22;47070;-87
2023/03/28 10:00:26;;;;;;;;;4.00;3.00;;;;;;;;6270678;22;45337;-87
2023/03/28 10:02:52;;;;;;;;;2.75;2.00;;;;;;;;6270987;22;45581;-88
2023/03/28 10:05:44;;;;;;;;;2.75;2.75;;;;;;;;6271127;22;45263;-89
2023/03/28 10:08:32;;;;;;;;;4.25;2.50;;;;;;;;6268137;22;46369;-88
2023/03/28 10:11:17;;;;;;;;;3.00;2.25;;;;;;;;6245373;22;45911;-88
2023/03/28 10:13:56;;;;;;;;;2.75;2.75;;;;;;;;6245575;22;45335;-90
2023/03/28 10:16:26;;;;;;;;;4.75;1.75;;;;;;;;6270725;22;45266;-87
2023/03/28 10:18:52;;;;;;;;;5.75;3.00;;;;;;;;6271403;22;46041;-86
2023/03/28 10:21:22;;;;;;;;;1.75;1.50;;;;;;;;6293545;22;45392;-87
2023/03/28 10:23:55;;;;;;;;;2.00;2.00;;;;;;;;6303726;22;45194;-88
2023/03/28 10:26:22;;;;;;;;;2.00;1.00;;;;;;;;6304157;22;45508;-87
2023/03/28 10:28:51;;;;;;;;;2.00;1.75;;;;;;;;6304507;22;46867;-87
2023/03/28 10:31:27;;;;;;;;;2.00;1.00;;;;;;;;6303820;22;45793;-87
2023/03/28 10:33:53;;;;;;;;;1.00;1.00;;;;;;;;6304395;22;45470;-88
2023/03/28 10:36:32;;;;;;;;;2.50;2.50;;;;;;;;6304401;22;45384;-87
2023/03/28 10:38:58;;;;;;;;;1.00;1.00;;;;;;;;6303743;22;47156;-89
2023/03/28 10:41:30;;;;;;;;;4.00;2.00;;;;;;;;6305350;22;45138;-90
2023/03/28 10:43:58;;;;;;;;;2.00;2.00;;;;;;;;6305915;22;45332;-89
2023/03/28 10:46:29;;;;;;;;;2.00;1.25;;;;;;;;6306260;22;45582;-90
2023/03/28 10:49:27;;;;;;;;;2.75;1.00;;;;;;;;6305218;22;46594;-90
2023/03/28 10:51:52;;;;;;;;;2.00;1.00;;;;;;;;6244903;22;45271;-86
2023/03/28 10:54:20;;;;;;;;;0.00;0.00;;;;;;;;6270868;22;45239;-86
2023/03/28 10:57:03;;;;;;;;;1.00;1.00;;;;;;;;6271228;22;45321;-84
2023/03/28 10:59:28;;;;;;;;;2.00;2.00;;;;;;;;6244766;22;48158;-88
2023/03/28 11:02:08;;;;;;;;;2.00;1.00;;;;;;;;6271332;22;45286;-87
2023/03/28 11:04:49;;;;;;;;;1.50;1.00;;;;;;;;6270387;22;45758;-87
2023/03/28 11:07:23;;;;;;;;;4.75;2.00;;;;;;;;6270997;22;45314;-87
2023/03/28 11:09:55;;;;;;;;;3.00;1.00;;;;;;;;6244027;22;48379;-87
2023/03/28 11:12:38;;;;;;;;;1.00;1.00;;;;;;;;6270546;22;45590;-87
2023/03/28 11:15:26;;;;;;;;;5.00;1.00;;;;;;;;6270468;22;45538;-86
2023/03/28 11:18:10;;;;;;;;;1.00;1.00;;;;;;;;6270611;22;45477;-87
2023/03/28 11:20:44;;;;;;;;;0.00;0.00;;;;;;;;6252565;22;45719;-87
2023/03/28 11:23:32;;;;;;;;;1.00;1.00;;;;;;;;6303835;22;45304;-85
2023/03/28 11:26:11;;;;;;;;;0.00;0.00;;;;;;;;6303979;22;45268;-87
2023/03/28 11:28:58;;;;;;;;;2.25;1.00;;;;;;;;6305916;22;45431;-87
2023/03/28 11:31:44;;;;;;;;;3.50;1.00;;;;;;;;6304329;22;48177;-87
2023/03/28 11:34:19;;;;;;;;;2.00;2.00;;;;;;;;6303085;22;45661;-87
2023/03/28 11:36:52;;;;;;;;;1.25;1.00;;;;;;;;6306497;22;45393;-89
2023/03/28 11:39:37;;;;;;;;;3.50;2.00;;;;;;;;6301832;22;45980;-89
2023/03/28 11:42:09;;;;;;;;;3.25;2.00;;;;;;;;6304984;22;47363;-87
2023/03/28 11:44:37;;;;;;;;;1.75;1.50;;;;;;;;6305859;22;45350;-88
2023/03/28 11:47:02;;;;;;;;;5.50;2.00;;;;;;;;6306230;22;45323;-88
2023/03/28 11:49:35;;;;;;;;;3.67;3.00;;;;;;;;6304733;22;45349;-88
2023/03/28 11:52:05;;;;;;;;;5.50;2.00;;;;;;;;6302484;22;47869;-87
2023/03/28 11:54:50;;;;;;;;;7.25;2.00;;;;;;;;6303742;22;45195;-87
2023/03/28 11:57:18;;;;;;;;;1.75;1.75;;;;;;;;6272235;22;45360;-86
2023/03/28 11:59:56;;;;;;;;;3.50;1.00;;;;;;;;6271951;22;45497;-87
2023/03/28 12:02:22;;;;;;;;;1.25;1.00;;;;;;;;6245987;22;48133;-88
2023/03/28 12:04:54;;;;;;;;;1.50;1.50;;;;;;;;6272205;22;45393;-88
2023/03/28 12:07:29;;;;;;;;;3.75;3.00;;;;;;;;6271731;22;45464;-88
2023/03/28 12:09:57;;;;;;;;;5.50;2.75;;;;;;;;6272557;22;45394;-88
2023/03/28 12:12:26;;;;;;;;;2.00;2.00;;;;;;;;6272412;22;46935;-89
2023/03/28 12:14:51;;;;;;;;;4.00;1.25;;;;;;;;6246977;22;45605;-89
2023/03/28 12:17:34;;;;;;;;;3.00;2.00;;;;;;;;6272957;22;45226;-88
2023/03/28 12:19:59;;;;;;;;;10.00;4.50;;;;;;;;6272161;22;45301;-87
2023/03/28 12:22:31;;;;;;;;;14.33;8.33;;;;;;;;6270451;22;46831;-88
2023/03/28 12:24:57;;;;;;;;;4.75;1.00;;;;;;;;6245468;22;46200;-90
2023/03/28 12:27:34;;;;;;;;;6.25;3.00;;;;;;;;6272819;22;45328;-92
2023/03/28 12:30:03;;;;;;;;;2.00;2.00;;;;;;;;6273582;22;45412;-90
2023/03/28 12:32:47;;;;;;;;;1.75;1.75;;;;;;;;6270591;22;45845;-88
2023/03/28 12:35:25;;;;;;;;;2.50;2.50;;;;;;;;6301992;22;45557;-92
2023/03/28 12:38:01;;;;;;;;;2.25;2.00;;;;;;;;6307702;22;45332;-91
2023/03/28 12:40:41;;;;;;;;;4.00;2.75;;;;;;;;6305529;22;45623;-88
2023/03/28 12:43:11;;;;;;;;;2.00;1.00;;;;;;;;6308475;22;46653;-90
2023/03/28 12:45:42;;;;;;;;;3.75;3.25;;;;;;;;6309080;22;45302;-85
2023/03/28 12:48:12;;;;;;;;;3.00;2.00;;;;;;;;6305398;22;45360;-86
2023/03/28 12:50:47;;;;;;;;;1.50;1.25;;;;;;;;6307222;22;45437;-86
2023/03/28 12:53:12;;;;;;;;;7.00;3.00;;;;;;;;6307971;22;45582;-87
2023/03/28 12:55:47;;;;;;;;;3.25;2.00;;;;;;;;6308145;22;45481;-87
2023/03/28 12:58:56;;;;;;;;;5.50;1.75;;;;;;;;6310889;22;45296;-91
2023/03/28 13:01:24;;;;;;;;;3.50;2.25;;;;;;;;6307437;22;45456;-87
2023/03/28 13:04:07;;;;;;;;;2.75;2.00;;;;;;;;6305340;22;45140;-87
2023/03/28 13:06:35;;;;;;;;;1.00;1.00;;;;;;;;6305080;22;45565;-85
2023/03/28 13:09:06;;;;;;;;;3.50;2.00;;;;;;;;6305898;22;45395;-88
2023/03/28 13:11:51;;;;;;;;;2.25;1.00;;;;;;;;6306550;22;45289;-89
2023/03/28 13:14:31;;;;;;;;;1.25;1.00;;;;;;;;6304853;22;47574;-89
2023/03/28 13:16:59;;;;;;;;;2.00;1.00;;;;;;;;6305198;22;45680;-90
2023/03/28 13:19:43;;;;;;;;;1.00;0.75;;;;;;;;6306656;22;45596;-89
2023/03/28 13:22:39;;;;;;;;;4.00;2.00;;;;;;;;6304953;22;45356;-89
2023/03/28 13:25:37;;;;;;;;;3.25;2.25;;;;;;;;6303593;22;46428;-90
2023/03/28 13:28:13;;;;;;;;;2.75;2.00;;;;;;;;6306408;22;45289;-90
2023/03/28 13:30:42;;;;;;;;;1.50;1.50;;;;;;;;6307388;22;45149;-88
2023/03/28 13:33:15;;;;;;;;;3.00;1.00;;;;;;;;6305958;22;45359;-88
2023/03/28 13:35:47;;;;;;;;;1.50;1.50;;;;;;;;6307021;22;46936;-89
2023/03/28 13:38:12;;;;;;;;;0.00;0.00;;;;;;;;6307784;22;45582;-86
2023/03/28 13:41:08;;;;;;;;;;;;;;;;;;;;;
2023/03/28 13:43:34;;;;;;;;;2.00;1.00;;;;;;;;6273387;22;69044;-88
2023/03/28 13:46:23;;;;;;;;;;;;;;;;;;;;;
2023/03/28 13:48:54;;;;;;;;;2.75;1.00;;;;;;;;6273085;22;73110;-88
2023/03/28 13:51:27;;;;;;;;;1.00;1.00;;;;;;;;6276529;22;45270;-89
2023/03/28 13:53:57;;;;;;;;;1.75;1.00;;;;;;;;6288959;22;44850;-90
2023/03/28 13:56:39;;;;;;;;;4.50;1.50;;;;;;;;6287709;22;45666;-89
2023/03/28 13:59:41;;;;;;;;;2.00;0.75;;;;;;;;6286618;22;45179;-89
2023/03/28 14:02:25;;;;;;;;;1.00;0.00;;;;;;;;6270399;22;45295;-90
2023/03/28 14:05:16;;;;;;;;;1.75;1.00;;;;;;;;6262491;22;44683;-89
2023/03/28 14:07:54;;;;;;;;;;;;;;;;;;;;;
2023/03/28 14:10:39;;;;;;;;;;;;;;;;;;;;;
2023/03/28 14:13:33;;;;;;;;;6.00;2.00;;;;;;;;6279235;22;67347;-89
2023/03/28 14:22:07;;;;;;;;;3.00;2.00;;;;;;;;6067719;23;45283;-89
2023/03/28 14:24:35;;;;;;;;;2.00;2.00;;;;;;;;6062556;23;45310;-90
2023/03/28 14:27:17;;;;;;;;;3.00;1.00;;;;;;;;6063235;23;45817;-89
2023/03/28 14:30:20;;;;;;;;;1.00;1.00;;;;;;;;6062242;23;45516;-89
2023/03/28 14:33:06;;;;;;;;;1.25;1.25;;;;;;;;6061263;23;45771;-88
2023/03/28 14:35:34;;;;;;;;;1.00;1.00;;;;;;;;6038749;23;45328;-89
2023/03/28 14:38:15;;;;;;;;;;;;;;;;;;;;;
2023/03/28 14:41:03;;;;;;;;;1.00;1.00;;;;;;;;6058514;23;75585;-88
2023/03/28 14:43:51;;;;;;;;;4.00;1.75;;;;;;;;6062475;23;45342;-89
2023/03/28 14:46:20;;;;;;;;;1.75;0.00;;;;;;;;6060626;23;45407;-86
2023/03/28 14:48:46;;;;;;;;;1.00;0.00;;;;;;;;6062523;23;45390;-89
2023/03/28 14:51:12;;;;;;;;;2.00;1.00;;;;;;;;6062380;23;47113;-88
2023/03/28 14:53:55;;;;;;;;;1.00;1.00;;;;;;;;6062248;23;45329;-89
2023/03/28 14:56:47;;;;;;;;;1.50;0.00;;;;;;;;6103258;23;45491;-89
2023/03/28 14:59:18;;;;;;;;;1.00;0.00;;;;;;;;6182332;22;45290;-87
2023/03/28 15:01:50;;;;;;;;;0.50;0.50;;;;;;;;6219836;22;45635;-89
2023/03/28 15:04:17;;;;;;;;;2.25;1.00;;;;;;;;6307083;22;45647;-89
2023/03/28 15:06:51;;;;;;;;;2.00;0.00;;;;;;;;6304964;22;45371;-89
2023/03/28 15:09:29;;;;;;;;;1.00;1.00;;;;;;;;6306721;22;45245;-87
2023/03/28 15:12:18;;;;;;;;;2.00;1.00;;;;;;;;6305755;22;46191;-88
2023/03/28 15:14:54;;;;;;;;;0.00;0.00;;;;;;;;6306199;22;45585;-87